sensor_id;sensor_type;location;lat;lon;timestamp;pressure;altitude;pressure_sealevel;temperature;humidity
7660;BME280;3872;47.902;8.162;2023-04-26T00:01:19;91806.88;;;7.63;100.00
7660;BME280;3872;47.902;8.162;2023-04-26T00:03:46;91803.56;;;8.29;100.00
7660;BME280;3872;47.902;8.162;2023-04-26T00:06:12;91799.38;;;8.51;100.00
7660;BME280;3872;47.902;8.162;2023-04-26T00:08:40;91801.72;;;8.29;100.00
7660;BME280;3872;47.902;8.162;2023-04-26T00:11:07;91799.19;;;8.00;100.00
7660;BME280;3872;47.902;8.162;2023-04-26T00:13:34;91794.69;;;8.24;100.00
7660;BME280;3872;47.902;8.162;2023-04-26T00:16:03;91784.00;;;8.45;100.00
7660;BME280;3872;47.902;8.162;2023-04-26T00:18:29;91785.72;;;8.07;100.00
7660;BME280;3872;47.902;8.162;2023-04-26T00:20:56;91785.63;;;7.93;100.00
7660;BME280;3872;47.902;8.162;2023-04-26T00:23:23;91778.03;;;7.92;100.00
7660;BME280;3872;47.902;8.162;2023-04-26T00:25:49;91773.78;;;8.19;100.00
7660;BME280;3872;47.902;8.162;2023-04-26T00:28:16;91776.19;;;8.16;100.00
7660;BME280;3872;47.902;8.162;2023-04-26T00:30:42;91775.66;;;7.95;100.00
7660;BME280;3872;47.902;8.162;2023-04-26T00:33:13;91779.22;;;7.80;100.00
7660;BME280;3872;47.902;8.162;2023-04-26T00:35:40;91782.94;;;7.51;100.00
7660;BME280;3872;47.902;8.162;2023-04-26T00:38:06;91785.63;;;7.12;100.00
7660;BME280;3872;47.902;8.162;2023-04-26T00:40:33;91779.66;;;7.06;100.00
7660;BME280;3872;47.902;8.162;2023-04-26T00:43:02;91780.72;;;7.63;100.00
7660;BME280;3872;47.902;8.162;2023-04-26T00:45:29;91784.22;;;7.77;100.00
7660;BME280;3872;47.902;8.162;2023-04-26T00:47:55;91782.94;;;7.51;100.00
7660;BME280;3872;47.902;8.162;2023-04-26T00:50:23;91789.81;;;7.41;100.00
7660;BME280;3872;47.902;8.162;2023-04-26T00:52:50;91790.09;;;7.40;100.00
7660;BME280;3872;47.902;8.162;2023-04-26T00:55:17;91792.50;;;7.60;100.00
7660;BME280;3872;47.902;8.162;2023-04-26T00:57:47;91791.59;;;7.46;100.00
7660;BME280;3872;47.902;8.162;2023-04-26T01:00:14;91789.72;;;7.52;100.00
7660;BME280;3872;47.902;8.162;2023-04-26T01:02:41;91799.13;;;6.90;100.00
7660;BME280;3872;47.902;8.162;2023-04-26T01:05:08;91798.03;;;7.30;100.00
7660;BME280;3872;47.902;8.162;2023-04-26T01:07:37;91810.47;;;6.26;100.00
7660;BME280;3872;47.902;8.162;2023-04-26T01:10:04;91810.16;;;6.87;100.00
7660;BME280;3872;47.902;8.162;2023-04-26T01:12:31;91801.59;;;7.39;100.00
7660;BME280;3872;47.902;8.162;2023-04-26T01:14:58;91810.97;;;6.77;100.00
7660;BME280;3872;47.902;8.162;2023-04-26T01:17:25;91816.22;;;6.77;100.00
7660;BME280;3872;47.902;8.162;2023-04-26T01:19:55;91820.47;;;6.14;100.00
7660;BME280;3872;47.902;8.162;2023-04-26T01:22:22;91819.69;;;6.62;100.00
7660;BME280;3872;47.902;8.162;2023-04-26T01:24:50;91811.78;;;6.78;100.00
7660;BME280;3872;47.902;8.162;2023-04-26T01:27:19;91810.75;;;6.74;100.00
7660;BME280;3872;47.902;8.162;2023-04-26T01:29:46;91806.69;;;6.91;100.00
7660;BME280;3872;47.902;8.162;2023-04-26T01:32:12;91800.78;;;6.81;100.00
7660;BME280;3872;47.902;8.162;2023-04-26T01:34:39;91801.00;;;6.84;100.00
7660;BME280;3872;47.902;8.162;2023-04-26T01:37:05;91798.66;;;6.83;100.00
7660;BME280;3872;47.902;8.162;2023-04-26T01:39:32;91792.28;;;6.60;100.00
7660;BME280;3872;47.902;8.162;2023-04-26T01:42:02;91788.41;;;6.91;100.00
7660;BME280;3872;47.902;8.162;2023-04-26T01:44:31;91784.38;;;7.04;100.00
7660;BME280;3872;47.902;8.162;2023-04-26T01:47:00;91774.94;;;7.08;100.00
7660;BME280;3872;47.902;8.162;2023-04-26T01:49:26;91772.78;;;7.15;100.00
7660;BME280;3872;47.902;8.162;2023-04-26T01:51:53;91775.19;;;7.06;100.00
7660;BME280;3872;47.902;8.162;2023-04-26T01:54:20;91772.06;;;7.04;100.00
7660;BME280;3872;47.902;8.162;2023-04-26T01:56:46;91768.44;;;7.00;100.00
7660;BME280;3872;47.902;8.162;2023-04-26T01:59:14;91770.16;;;7.15;100.00
7660;BME280;3872;47.902;8.162;2023-04-26T02:01:41;91775.66;;;7.14;100.00
7660;BME280;3872;47.902;8.162;2023-04-26T02:04:09;91774.50;;;6.96;100.00
7660;BME280;3872;47.902;8.162;2023-04-26T02:06:36;91768.03;;;6.88;100.00
7660;BME280;3872;47.902;8.162;2023-04-26T02:09:02;91772.00;;;6.81;100.00
7660;BME280;3872;47.902;8.162;2023-04-26T02:11:30;91772.69;;;6.57;100.00
7660;BME280;3872;47.902;8.162;2023-04-26T02:13:56;91782.09;;;6.58;100.00
7660;BME280;3872;47.902;8.162;2023-04-26T02:16:24;91774.75;;;6.60;100.00
7660;BME280;3872;47.902;8.162;2023-04-26T02:18:51;91777.38;;;6.55;100.00
7660;BME280;3872;47.902;8.162;2023-04-26T02:21:19;91777.34;;;6.65;100.00
7660;BME280;3872;47.902;8.162;2023-04-26T02:23:46;91780.88;;;6.41;100.00
7660;BME280;3872;47.902;8.162;2023-04-26T02:26:13;91790.00;;;5.94;100.00
7660;BME280;3872;47.902;8.162;2023-04-26T02:28:42;91782.66;;;6.01;100.00
7660;BME280;3872;47.902;8.162;2023-04-26T02:31:08;91786.50;;;6.14;100.00
7660;BME280;3872;47.902;8.162;2023-04-26T02:33:36;91789.69;;;6.01;100.00
7660;BME280;3872;47.902;8.162;2023-04-26T02:36:03;91790.00;;;5.94;100.00
7660;BME280;3872;47.902;8.162;2023-04-26T02:38:32;91792.91;;;5.72;100.00
7660;BME280;3872;47.902;8.162;2023-04-26T02:41:02;91792.09;;;5.77;100.00
7660;BME280;3872;47.902;8.162;2023-04-26T02:43:30;91787.47;;;5.54;100.00
7660;BME280;3872;47.902;8.162;2023-04-26T02:45:57;91783.38;;;4.71;100.00
7660;BME280;3872;47.902;8.162;2023-04-26T02:48:25;91791.38;;;5.56;100.00
7660;BME280;3872;47.902;8.162;2023-04-26T02:50:53;91786.91;;;5.72;100.00
7660;BME280;3872;47.902;8.162;2023-04-26T02:53:21;91783.31;;;6.27;100.00
7660;BME280;3872;47.902;8.162;2023-04-26T02:55:47;91782.59;;;6.60;100.00
7660;BME280;3872;47.902;8.162;2023-04-26T02:58:14;91785.97;;;6.66;100.00
7660;BME280;3872;47.902;8.162;2023-04-26T03:00:45;91778.38;;;6.64;100.00
7660;BME280;3872;47.902;8.162;2023-04-26T03:03:12;91778.56;;;6.78;100.00
7660;BME280;3872;47.902;8.162;2023-04-26T03:05:39;91777.66;;;6.59;100.00
7660;BME280;3872;47.902;8.162;2023-04-26T03:08:07;91778.50;;;6.83;100.00
7660;BME280;3872;47.902;8.162;2023-04-26T03:10:34;91773.22;;;6.93;100.00
7660;BME280;3872;47.902;8.162;2023-04-26T03:13:00;91773.44;;;6.97;100.00
7660;BME280;3872;47.902;8.162;2023-04-26T03:15:28;91772.06;;;6.71;100.00
7660;BME280;3872;47.902;8.162;2023-04-26T03:17:55;91778.59;;;6.73;100.00
7660;BME280;3872;47.902;8.162;2023-04-26T03:20:22;91777.81;;;6.73;100.00
7660;BME280;3872;47.902;8.162;2023-04-26T03:22:49;91771.91;;;6.91;100.00
7660;BME280;3872;47.902;8.162;2023-04-26T03:25:18;91773.38;;;6.68;100.00
7660;BME280;3872;47.902;8.162;2023-04-26T03:27:44;91765.53;;;6.73;100.00
7660;BME280;3872;47.902;8.162;2023-04-26T03:30:11;91762.47;;;6.95;100.00
7660;BME280;3872;47.902;8.162;2023-04-26T03:32:39;91772.56;;;6.34;100.00
7660;BME280;3872;47.902;8.162;2023-04-26T03:35:06;91771.06;;;6.61;100.00
7660;BME280;3872;47.902;8.162;2023-04-26T03:37:33;91769.28;;;6.57;100.00
7660;BME280;3872;47.902;8.162;2023-04-26T03:40:05;91759.78;;;6.32;100.00
7660;BME280;3872;47.902;8.162;2023-04-26T03:42:34;91765.84;;;6.61;100.00
7660;BME280;3872;47.902;8.162;2023-04-26T03:45:01;91759.34;;;6.54;100.00
7660;BME280;3872;47.902;8.162;2023-04-26T03:47:29;91755.09;;;7.02;100.00
7660;BME280;3872;47.902;8.162;2023-04-26T03:49:56;91756.94;;;6.23;100.00
7660;BME280;3872;47.902;8.162;2023-04-26T03:52:23;91764.16;;;5.87;100.00
7660;BME280;3872;47.902;8.162;2023-04-26T03:54:50;91754.38;;;5.39;100.00
7660;BME280;3872;47.902;8.162;2023-04-26T03:57:17;91752.03;;;5.22;100.00
7660;BME280;3872;47.902;8.162;2023-04-26T03:59:45;91756.13;;;5.64;100.00
7660;BME280;3872;47.902;8.162;2023-04-26T04:02:12;91749.47;;;6.02;100.00
7660;BME280;3872;47.902;8.162;2023-04-26T04:04:39;91750.44;;;6.60;100.00
7660;BME280;3872;47.902;8.162;2023-04-26T04:07:06;91758.38;;;6.45;100.00
7660;BME280;3872;47.902;8.162;2023-04-26T04:09:33;91758.47;;;6.29;100.00
7660;BME280;3872;47.902;8.162;2023-04-26T04:11:59;91763.69;;;6.29;100.00
7660;BME280;3872;47.902;8.162;2023-04-26T04:14:27;91750.78;;;5.99;100.00
7660;BME280;3872;47.902;8.162;2023-04-26T04:16:55;91751.81;;;6.47;100.00
7660;BME280;3872;47.902;8.162;2023-04-26T04:19:24;91756.50;;;6.06;100.00
7660;BME280;3872;47.902;8.162;2023-04-26T04:21:50;91765.38;;;4.90;100.00
7660;BME280;3872;47.902;8.162;2023-04-26T04:24:17;91763.03;;;4.73;100.00
7660;BME280;3872;47.902;8.162;2023-04-26T04:26:45;91760.69;;;4.87;100.00
7660;BME280;3872;47.902;8.162;2023-04-26T04:29:11;91759.75;;;5.73;100.00
7660;BME280;3872;47.902;8.162;2023-04-26T04:31:38;91754.72;;;5.97;100.00
7660;BME280;3872;47.902;8.162;2023-04-26T04:34:08;91754.50;;;5.88;100.00
7660;BME280;3872;47.902;8.162;2023-04-26T04:36:35;91755.22;;;5.99;100.00
7660;BME280;3872;47.902;8.162;2023-04-26T04:39:03;91752.09;;;6.02;100.00
7660;BME280;3872;47.902;8.162;2023-04-26T04:41:30;91757.88;;;6.43;100.00
7660;BME280;3872;47.902;8.162;2023-04-26T04:43:57;91762.97;;;5.34;100.00
7660;BME280;3872;47.902;8.162;2023-04-26T04:46:24;91760.22;;;5.95;100.00
7660;BME280;3872;47.902;8.162;2023-04-26T04:48:51;91763.91;;;5.89;100.00
7660;BME280;3872;47.902;8.162;2023-04-26T04:51:20;91769.94;;;5.74;100.00
7660;BME280;3872;47.902;8.162;2023-04-26T04:53:47;91766.91;;;6.11;100.00
7660;BME280;3872;47.902;8.162;2023-04-26T04:56:13;91767.63;;;6.27;100.00
7660;BME280;3872;47.902;8.162;2023-04-26T04:58:42;91776.19;;;6.38;100.00
7660;BME280;3872;47.902;8.162;2023-04-26T05:01:09;91773.91;;;6.26;100.00
7660;BME280;3872;47.902;8.162;2023-04-26T05:03:49;91774.19;;;6.24;100.00
7660;BME280;3872;47.902;8.162;2023-04-26T05:06:15;91774.19;;;6.24;100.00
7660;BME280;3872;47.902;8.162;2023-04-26T05:08:43;91776.16;;;5.78;100.00
7660;BME280;3872;47.902;8.162;2023-04-26T05:11:10;91771.94;;;6.03;100.00
7660;BME280;3872;47.902;8.162;2023-04-26T05:13:36;91767.13;;;6.20;100.00
7660;BME280;3872;47.902;8.162;2023-04-26T05:16:04;91772.34;;;6.25;100.00
7660;BME280;3872;47.902;8.162;2023-04-26T05:18:31;91786.19;;;4.55;100.00
7660;BME280;3872;47.902;8.162;2023-04-26T05:20:58;91781.75;;;4.35;100.00
7660;BME280;3872;47.902;8.162;2023-04-26T05:23:25;91787.41;;;5.89;100.00
7660;BME280;3872;47.902;8.162;2023-04-26T05:25:53;91785.78;;;5.98;100.00
7660;BME280;3872;47.902;8.162;2023-04-26T05:28:52;91788.00;;;6.30;100.00
7660;BME280;3872;47.902;8.162;2023-04-26T05:31:27;91790.22;;;6.03;100.00
7660;BME280;3872;47.902;8.162;2023-04-26T05:34:03;91791.44;;;6.20;100.00
7660;BME280;3872;47.902;8.162;2023-04-26T05:36:35;91789.06;;;5.29;100.00
7660;BME280;3872;47.902;8.162;2023-04-26T05:39:02;91789.19;;;6.04;100.00
7660;BME280;3872;47.902;8.162;2023-04-26T05:41:31;91790.06;;;6.38;100.00
7660;BME280;3872;47.902;8.162;2023-04-26T05:43:58;91786.84;;;6.51;100.00
7660;BME280;3872;47.902;8.162;2023-04-26T05:46:24;91799.59;;;6.09;100.00
7660;BME280;3872;47.902;8.162;2023-04-26T05:48:51;91793.53;;;6.23;100.00
7660;BME280;3872;47.902;8.162;2023-04-26T05:51:17;91800.22;;;6.40;100.00
7660;BME280;3872;47.902;8.162;2023-04-26T05:53:45;91794.16;;;6.49;100.00
7660;BME280;3872;47.902;8.162;2023-04-26T05:56:12;91804.56;;;6.59;100.00
7660;BME280;3872;47.902;8.162;2023-04-26T05:58:40;91809.66;;;6.80;100.00
7660;BME280;3872;47.902;8.162;2023-04-26T06:01:07;91813.88;;;5.01;100.00
7660;BME280;3872;47.902;8.162;2023-04-26T06:03:34;91820.22;;;6.05;100.00
7660;BME280;3872;47.902;8.162;2023-04-26T06:06:01;91819.78;;;6.52;100.00
7660;BME280;3872;47.902;8.162;2023-04-26T06:08:28;91818.00;;;6.87;100.00
7660;BME280;3872;47.902;8.162;2023-04-26T06:10:55;91820.81;;;6.95;100.00
7660;BME280;3872;47.902;8.162;2023-04-26T06:13:21;91827.88;;;6.95;100.00
7660;BME280;3872;47.902;8.162;2023-04-26T06:15:49;91820.63;;;6.33;100.00
7660;BME280;3872;47.902;8.162;2023-04-26T06:18:16;91831.31;;;4.70;100.00
7660;BME280;3872;47.902;8.162;2023-04-26T06:20:42;91831.75;;;5.99;100.00
7660;BME280;3872;47.902;8.162;2023-04-26T06:23:09;91821.22;;;6.74;100.00
7660;BME280;3872;47.902;8.162;2023-04-26T06:25:35;91821.28;;;7.02;100.00
7660;BME280;3872;47.902;8.162;2023-04-26T06:28:02;91823.53;;;6.80;100.00
7660;BME280;3872;47.902;8.162;2023-04-26T06:30:29;91822.59;;;7.00;100.00
7660;BME280;3872;47.902;8.162;2023-04-26T06:32:58;91814.19;;;7.08;100.00
7660;BME280;3872;47.902;8.162;2023-04-26T06:35:25;91820.81;;;7.58;100.00
7660;BME280;3872;47.902;8.162;2023-04-26T06:37:51;91811.81;;;7.40;100.00
7660;BME280;3872;47.902;8.162;2023-04-26T06:40:19;91816.09;;;7.84;100.00
7660;BME280;3872;47.902;8.162;2023-04-26T06:42:46;91819.31;;;7.52;100.00
7660;BME280;3872;47.902;8.162;2023-04-26T06:45:36;91810.16;;;7.50;100.00
7660;BME280;3872;47.902;8.162;2023-04-26T06:48:04;91809.91;;;7.75;100.00
7660;BME280;3872;47.902;8.162;2023-04-26T06:50:32;91806.81;;;7.44;100.00
7660;BME280;3872;47.902;8.162;2023-04-26T06:52:59;91804.84;;;7.31;100.00
7660;BME280;3872;47.902;8.162;2023-04-26T06:55:25;91799.81;;;7.63;100.00
7660;BME280;3872;47.902;8.162;2023-04-26T06:57:52;91802.53;;;8.24;100.00
7660;BME280;3872;47.902;8.162;2023-04-26T07:00:19;91800.91;;;7.86;100.00
7660;BME280;3872;47.902;8.162;2023-04-26T07:02:45;91807.91;;;8.14;100.00
7660;BME280;3872;47.902;8.162;2023-04-26T07:05:13;91803.84;;;8.03;100.00
7660;BME280;3872;47.902;8.162;2023-04-26T07:07:40;91803.31;;;8.25;100.00
7660;BME280;3872;47.902;8.162;2023-04-26T07:10:08;91802.16;;;8.12;100.00
7660;BME280;3872;47.902;8.162;2023-04-26T07:12:34;91801.78;;;8.24;100.00
7660;BME280;3872;47.902;8.162;2023-04-26T07:15:01;91799.91;;;8.24;100.00
7660;BME280;3872;47.902;8.162;2023-04-26T07:17:28;91806.00;;;7.96;100.00
7660;BME280;3872;47.902;8.162;2023-04-26T07:19:55;91801.38;;;8.78;100.00
7660;BME280;3872;47.902;8.162;2023-04-26T07:22:23;91787.63;;;9.19;100.00
7660;BME280;3872;47.902;8.162;2023-04-26T07:24:49;91791.84;;;9.33;100.00
7660;BME280;3872;47.902;8.162;2023-04-26T07:27:16;91793.53;;;9.11;100.00
7660;BME280;3872;47.902;8.162;2023-04-26T07:29:43;91781.97;;;9.44;100.00
7660;BME280;3872;47.902;8.162;2023-04-26T07:32:09;91784.66;;;9.71;100.00
7660;BME280;3872;47.902;8.162;2023-04-26T07:34:36;91785.34;;;9.91;100.00
7660;BME280;3872;47.902;8.162;2023-04-26T07:37:02;91788.88;;;10.13;100.00
7660;BME280;3872;47.902;8.162;2023-04-26T07:39:31;91778.03;;;10.56;100.00
7660;BME280;3872;47.902;8.162;2023-04-26T07:41:57;91776.38;;;9.64;100.00
7660;BME280;3872;47.902;8.162;2023-04-26T07:44:24;91779.59;;;9.89;100.00
7660;BME280;3872;47.902;8.162;2023-04-26T07:46:50;91787.38;;;8.83;100.00
7660;BME280;3872;47.902;8.162;2023-04-26T07:49:17;91785.75;;;10.11;100.00
7660;BME280;3872;47.902;8.162;2023-04-26T07:51:43;91782.66;;;10.50;100.00
7660;BME280;3872;47.902;8.162;2023-04-26T07:54:10;91778.03;;;10.70;100.00
7660;BME280;3872;47.902;8.162;2023-04-26T07:56:38;91776.69;;;11.17;97.00
7660;BME280;3872;47.902;8.162;2023-04-26T07:59:04;91778.31;;;11.49;95.19
7660;BME280;3872;47.902;8.162;2023-04-26T08:01:31;91776.66;;;11.84;88.42
7660;BME280;3872;47.902;8.162;2023-04-26T08:03:57;91773.13;;;11.88;85.61
7660;BME280;3872;47.902;8.162;2023-04-26T08:06:24;91771.56;;;11.87;84.50
7660;BME280;3872;47.902;8.162;2023-04-26T08:08:51;91773.31;;;12.40;78.12
7660;BME280;3872;47.902;8.162;2023-04-26T08:11:18;91776.16;;;12.61;71.60
7660;BME280;3872;47.902;8.162;2023-04-26T08:13:46;91780.44;;;12.39;64.94
7660;BME280;3872;47.902;8.162;2023-04-26T08:16:12;91779.13;;;12.11;62.17
7660;BME280;3872;47.902;8.162;2023-04-26T08:18:39;91785.84;;;11.86;63.53
7660;BME280;3872;47.902;8.162;2023-04-26T08:21:06;91783.75;;;10.22;74.17
7660;BME280;3872;47.902;8.162;2023-04-26T08:23:32;91779.59;;;11.60;67.96
7660;BME280;3872;47.902;8.162;2023-04-26T08:26:01;91782.56;;;12.94;68.18
7660;BME280;3872;47.902;8.162;2023-04-26T08:28:27;91779.03;;;13.16;56.78
7660;BME280;3872;47.902;8.162;2023-04-26T08:30:55;91776.50;;;13.62;62.00
7660;BME280;3872;47.902;8.162;2023-04-26T08:33:22;91776.63;;;14.21;55.96
7660;BME280;3872;47.902;8.162;2023-04-26T08:35:48;91770.31;;;14.14;57.90
7660;BME280;3872;47.902;8.162;2023-04-26T08:38:15;91767.53;;;14.01;57.26
7660;BME280;3872;47.902;8.162;2023-04-26T08:40:42;91775.09;;;14.20;55.78
7660;BME280;3872;47.902;8.162;2023-04-26T08:43:13;91773.56;;;13.47;56.91
7660;BME280;3872;47.902;8.162;2023-04-26T08:45:43;91775.53;;;11.76;57.69
7660;BME280;3872;47.902;8.162;2023-04-26T08:48:12;91782.50;;;12.60;60.14
7660;BME280;3872;47.902;8.162;2023-04-26T08:50:42;91776.22;;;13.12;55.07
7660;BME280;3872;47.902;8.162;2023-04-26T08:53:11;91775.75;;;13.10;52.38
7660;BME280;3872;47.902;8.162;2023-04-26T08:55:40;91774.19;;;13.09;53.85
7660;BME280;3872;47.902;8.162;2023-04-26T08:58:07;91777.63;;;13.18;52.54
7660;BME280;3872;47.902;8.162;2023-04-26T09:00:34;91771.06;;;12.64;54.47
7660;BME280;3872;47.902;8.162;2023-04-26T09:03:01;91778.28;;;12.02;58.48
7660;BME280;3872;47.902;8.162;2023-04-26T09:05:29;91777.31;;;13.37;56.55
7660;BME280;3872;47.902;8.162;2023-04-26T09:07:59;91772.19;;;13.49;55.86
7660;BME280;3872;47.902;8.162;2023-04-26T09:10:26;91776.63;;;14.21;53.21
7660;BME280;3872;47.902;8.162;2023-04-26T09:12:54;91776.19;;;14.19;52.35
7660;BME280;3872;47.902;8.162;2023-04-26T09:15:22;91776.47;;;12.59;56.31
7660;BME280;3872;47.902;8.162;2023-04-26T09:17:48;91772.13;;;13.66;55.39
7660;BME280;3872;47.902;8.162;2023-04-26T09:20:18;91782.22;;;13.82;53.96
7660;BME280;3872;47.902;8.162;2023-04-26T09:22:47;91783.09;;;12.39;57.53
7660;BME280;3872;47.902;8.162;2023-04-26T09:25:15;91790.19;;;11.15;61.02
7660;BME280;3872;47.902;8.162;2023-04-26T09:27:43;91774.66;;;13.54;56.79
7660;BME280;3872;47.902;8.162;2023-04-26T09:30:14;91772.50;;;14.03;54.87
7660;BME280;3872;47.902;8.162;2023-04-26T09:32:50;91774.13;;;12.66;54.59
7660;BME280;3872;47.902;8.162;2023-04-26T09:35:22;91771.41;;;13.06;55.18
7660;BME280;3872;47.902;8.162;2023-04-26T09:37:56;91775.78;;;12.28;56.90
7660;BME280;3872;47.902;8.162;2023-04-26T09:40:25;91768.28;;;13.64;53.08
7660;BME280;3872;47.902;8.162;2023-04-26T09:43:02;91763.75;;;14.78;50.08
7660;BME280;3872;47.902;8.162;2023-04-26T09:45:30;91766.78;;;15.18;48.13
7660;BME280;3872;47.902;8.162;2023-04-26T09:48:12;91780.09;;;14.60;48.17
7660;BME280;3872;47.902;8.162;2023-04-26T09:50:41;91773.75;;;13.42;52.52
7660;BME280;3872;47.902;8.162;2023-04-26T09:53:10;91772.13;;;15.31;50.55
7660;BME280;3872;47.902;8.162;2023-04-26T09:55:36;91761.47;;;16.05;46.27
7660;BME280;3872;47.902;8.162;2023-04-26T09:58:09;91758.06;;;16.77;46.29
7660;BME280;3872;47.902;8.162;2023-04-26T10:00:37;91762.00;;;15.12;50.55
7660;BME280;3872;47.902;8.162;2023-04-26T10:03:06;91763.06;;;15.32;52.14
7660;BME280;3872;47.902;8.162;2023-04-26T10:05:33;91755.38;;;15.18;49.85
7660;BME280;3872;47.902;8.162;2023-04-26T10:08:04;91760.53;;;15.89;48.15
7660;BME280;3872;47.902;8.162;2023-04-26T10:10:34;91765.06;;;15.14;47.99
7660;BME280;3872;47.902;8.162;2023-04-26T10:13:00;91763.94;;;12.90;54.67
7660;BME280;3872;47.902;8.162;2023-04-26T10:15:27;91762.09;;;14.95;50.82
7660;BME280;3872;47.902;8.162;2023-04-26T10:17:54;91771.31;;;14.68;48.51
7660;BME280;3872;47.902;8.162;2023-04-26T10:20:21;91764.28;;;14.93;45.78
7660;BME280;3872;47.902;8.162;2023-04-26T10:22:52;91771.50;;;15.34;46.20
7660;BME280;3872;47.902;8.162;2023-04-26T10:25:19;91760.66;;;15.92;43.55
7660;BME280;3872;47.902;8.162;2023-04-26T10:27:48;91752.03;;;15.83;48.38
7660;BME280;3872;47.902;8.162;2023-04-26T10:30:16;91754.56;;;16.73;44.12
7660;BME280;3872;47.902;8.162;2023-04-26T10:33:10;91754.84;;;15.66;47.26
7660;BME280;3872;47.902;8.162;2023-04-26T10:35:58;91765.94;;;12.76;54.13
7660;BME280;3872;47.902;8.162;2023-04-26T10:38:25;91745.56;;;13.63;51.63
7660;BME280;3872;47.902;8.162;2023-04-26T10:40:52;91740.25;;;16.41;47.51
7660;BME280;3872;47.902;8.162;2023-04-26T10:43:29;91739.94;;;17.32;44.00
7660;BME280;3872;47.902;8.162;2023-04-26T10:46:32;91741.22;;;17.10;42.71
7660;BME280;3872;47.902;8.162;2023-04-26T10:49:11;91739.63;;;15.87;44.88
7660;BME280;3872;47.902;8.162;2023-04-26T10:51:38;91741.41;;;12.84;54.29
7660;BME280;3872;47.902;8.162;2023-04-26T10:54:06;91728.94;;;15.09;50.77
7660;BME280;3872;47.902;8.162;2023-04-26T10:56:50;91744.13;;;14.21;47.40
7660;BME280;3872;47.902;8.162;2023-04-26T10:59:20;91730.41;;;14.57;49.91
7660;BME280;3872;47.902;8.162;2023-04-26T11:01:47;91741.81;;;14.10;49.42
7660;BME280;3872;47.902;8.162;2023-04-26T11:04:14;91731.84;;;14.75;46.39
7660;BME280;3872;47.902;8.162;2023-04-26T11:06:47;91726.34;;;15.75;44.82
7660;BME280;3872;47.902;8.162;2023-04-26T11:09:34;91722.69;;;15.47;43.97
7660;BME280;3872;47.902;8.162;2023-04-26T11:12:03;91733.03;;;14.57;48.25
7660;BME280;3872;47.902;8.162;2023-04-26T11:14:31;91740.47;;;13.23;53.70
7660;BME280;3872;47.902;8.162;2023-04-26T11:17:01;91748.53;;;12.84;54.79
7660;BME280;3872;47.902;8.162;2023-04-26T11:19:28;91742.47;;;13.52;53.01
7660;BME280;3872;47.902;8.162;2023-04-26T11:21:55;91742.63;;;14.02;54.63
7660;BME280;3872;47.902;8.162;2023-04-26T11:24:25;91746.94;;;12.48;62.20
7660;BME280;3872;47.902;8.162;2023-04-26T11:26:51;91734.28;;;13.28;59.94
7660;BME280;3872;47.902;8.162;2023-04-26T11:29:18;91744.13;;;13.74;57.98
7660;BME280;3872;47.902;8.162;2023-04-26T11:31:51;91744.34;;;13.43;58.34
7660;BME280;3872;47.902;8.162;2023-04-26T11:34:20;91736.09;;;13.02;60.13
7660;BME280;3872;47.902;8.162;2023-04-26T11:36:47;91735.50;;;13.22;57.97
7660;BME280;3872;47.902;8.162;2023-04-26T11:39:14;91748.63;;;12.36;63.04
7660;BME280;3872;47.902;8.162;2023-04-26T11:41:40;91734.97;;;12.34;65.51
7660;BME280;3872;47.902;8.162;2023-04-26T11:44:07;91739.50;;;14.09;58.31
7660;BME280;3872;47.902;8.162;2023-04-26T11:46:35;91738.53;;;15.35;52.99
7660;BME280;3872;47.902;8.162;2023-04-26T11:49:06;91734.47;;;13.78;60.12
7660;BME280;3872;47.902;8.162;2023-04-26T11:51:33;91735.84;;;14.22;56.40
7660;BME280;3872;47.902;8.162;2023-04-26T11:54:00;91722.97;;;13.74;57.59
7660;BME280;3872;47.902;8.162;2023-04-26T11:56:27;91731.41;;;14.43;57.30
7660;BME280;3872;47.902;8.162;2023-04-26T11:58:54;91741.84;;;13.47;62.21
7660;BME280;3872;47.902;8.162;2023-04-26T12:01:23;91741.72;;;12.91;60.39
7660;BME280;3872;47.902;8.162;2023-04-26T12:03:51;91738.59;;;13.50;60.38
7660;BME280;3872;47.902;8.162;2023-04-26T12:06:20;91743.03;;;13.75;59.59
7660;BME280;3872;47.902;8.162;2023-04-26T12:08:51;91740.38;;;13.84;58.40
7660;BME280;3872;47.902;8.162;2023-04-26T12:11:18;91743.94;;;12.24;68.79
7660;BME280;3872;47.902;8.162;2023-04-26T12:13:45;91732.22;;;12.73;63.65
7660;BME280;3872;47.902;8.162;2023-04-26T12:16:12;91741.03;;;14.10;57.12
7660;BME280;3872;47.902;8.162;2023-04-26T12:18:39;91732.84;;;14.32;53.49
7660;BME280;3872;47.902;8.162;2023-04-26T12:21:06;91739.69;;;14.33;56.91
7660;BME280;3872;47.902;8.162;2023-04-26T12:23:39;91746.06;;;13.22;59.23
7660;BME280;3872;47.902;8.162;2023-04-26T12:26:06;91749.66;;;13.00;61.73
7660;BME280;3872;47.902;8.162;2023-04-26T12:28:35;91749.69;;;12.26;63.58
7660;BME280;3872;47.902;8.162;2023-04-26T12:31:02;91738.63;;;13.88;58.86
7660;BME280;3872;47.902;8.162;2023-04-26T12:33:28;91736.06;;;13.70;60.60
7660;BME280;3872;47.902;8.162;2023-04-26T12:35:57;91743.78;;;14.22;54.76
7660;BME280;3872;47.902;8.162;2023-04-26T12:38:24;91742.63;;;12.87;61.30
7660;BME280;3872;47.902;8.162;2023-04-26T12:40:52;91740.19;;;15.06;51.03
7660;BME280;3872;47.902;8.162;2023-04-26T12:43:18;91729.47;;;15.77;48.66
7660;BME280;3872;47.902;8.162;2023-04-26T12:45:48;91721.41;;;16.95;46.38
7660;BME280;3872;47.902;8.162;2023-04-26T12:48:14;91720.94;;;17.73;45.95
7660;BME280;3872;47.902;8.162;2023-04-26T12:50:41;91720.88;;;16.53;47.75
7660;BME280;3872;47.902;8.162;2023-04-26T12:53:08;91724.97;;;16.38;47.03
7660;BME280;3872;47.902;8.162;2023-04-26T12:55:36;91716.44;;;16.57;46.79
7660;BME280;3872;47.902;8.162;2023-04-26T12:58:04;91726.19;;;14.26;54.35
7660;BME280;3872;47.902;8.162;2023-04-26T13:00:30;91717.53;;;16.56;46.30
7660;BME280;3872;47.902;8.162;2023-04-26T13:02:57;91706.19;;;17.08;45.75
7660;BME280;3872;47.902;8.162;2023-04-26T13:05:23;91705.13;;;17.65;45.17
7660;BME280;3872;47.902;8.162;2023-04-26T13:07:50;91704.72;;;19.07;42.11
7660;BME280;3872;47.902;8.162;2023-04-26T13:10:17;91709.66;;;18.23;44.24
7660;BME280;3872;47.902;8.162;2023-04-26T13:12:43;91705.69;;;19.53;41.68
7660;BME280;3872;47.902;8.162;2023-04-26T13:15:11;91709.59;;;20.44;39.74
7660;BME280;3872;47.902;8.162;2023-04-26T13:17:38;91718.13;;;18.76;40.27
7660;BME280;3872;47.902;8.162;2023-04-26T13:20:07;91702.50;;;19.67;39.18
7660;BME280;3872;47.902;8.162;2023-04-26T13:22:34;91696.44;;;18.11;42.11
7660;BME280;3872;47.902;8.162;2023-04-26T13:25:00;91699.75;;;17.92;42.33
7660;BME280;3872;47.902;8.162;2023-04-26T13:27:27;91700.97;;;17.95;44.55